sensor_id;sensor_type;location;lat;lon;timestamp;P1;durP1;ratioP1;P2;durP2;ratioP2
39518;SDS011;25200;53.394;10.414;2023-12-29T00:00:05;7.55;;;1.92;;
39518;SDS011;25200;53.394;10.414;2023-12-29T00:02:31;9.40;;;1.75;;
39518;SDS011;25200;53.394;10.414;2023-12-29T00:04:57;5.55;;;1.73;;
39518;SDS011;25200;53.394;10.414;2023-12-29T00:07:22;8.60;;;1.83;;
39518;SDS011;25200;53.394;10.414;2023-12-29T00:09:48;10.95;;;2.13;;
39518;SDS011;25200;53.394;10.414;2023-12-29T00:12:13;11.23;;;2.05;;
39518;SDS011;25200;53.394;10.414;2023-12-29T00:14:39;9.60;;;2.20;;
39518;SDS011;25200;53.394;10.414;2023-12-29T00:17:05;6.75;;;1.80;;
39518;SDS011;25200;53.394;10.414;2023-12-29T00:19:31;10.35;;;2.10;;
39518;SDS011;25200;53.394;10.414;2023-12-29T00:21:56;9.05;;;2.25;;
39518;SDS011;25200;53.394;10.414;2023-12-29T00:24:24;9.05;;;2.47;;
39518;SDS011;25200;53.394;10.414;2023-12-29T00:26:51;8.27;;;1.90;;
39518;SDS011;25200;53.394;10.414;2023-12-29T00:29:16;4.93;;;1.60;;
39518;SDS011;25200;53.394;10.414;2023-12-29T00:31:42;11.40;;;2.53;;
39518;SDS011;25200;53.394;10.414;2023-12-29T00:34:08;7.55;;;2.10;;
39518;SDS011;25200;53.394;10.414;2023-12-29T00:36:34;9.57;;;2.08;;
39518;SDS011;25200;53.394;10.414;2023-12-29T00:39:00;12.50;;;2.28;;
39518;SDS011;25200;53.394;10.414;2023-12-29T00:41:26;8.40;;;2.13;;
39518;SDS011;25200;53.394;10.414;2023-12-29T00:43:51;9.68;;;1.90;;
39518;SDS011;25200;53.394;10.414;2023-12-29T00:46:17;6.93;;;1.80;;
39518;SDS011;25200;53.394;10.414;2023-12-29T00:48:43;8.07;;;2.35;;
39518;SDS011;25200;53.394;10.414;2023-12-29T00:51:08;7.15;;;1.88;;
39518;SDS011;25200;53.394;10.414;2023-12-29T00:53:34;7.70;;;2.03;;
39518;SDS011;25200;53.394;10.414;2023-12-29T00:56:00;12.52;;;2.25;;
39518;SDS011;25200;53.394;10.414;2023-12-29T00:58:26;6.78;;;1.70;;
39518;SDS011;25200;53.394;10.414;2023-12-29T01:00:52;7.50;;;1.98;;
39518;SDS011;25200;53.394;10.414;2023-12-29T01:03:18;8.55;;;1.80;;
39518;SDS011;25200;53.394;10.414;2023-12-29T01:05:43;10.27;;;2.13;;
39518;SDS011;25200;53.394;10.414;2023-12-29T01:08:09;6.28;;;1.90;;
39518;SDS011;25200;53.394;10.414;2023-12-29T01:10:34;10.57;;;2.38;;
39518;SDS011;25200;53.394;10.414;2023-12-29T01:13:00;10.68;;;2.22;;
39518;SDS011;25200;53.394;10.414;2023-12-29T01:15:26;6.78;;;1.77;;
39518;SDS011;25200;53.394;10.414;2023-12-29T01:17:52;8.30;;;1.65;;
39518;SDS011;25200;53.394;10.414;2023-12-29T01:20:17;8.20;;;1.90;;
39518;SDS011;25200;53.394;10.414;2023-12-29T01:22:43;7.72;;;1.92;;
39518;SDS011;25200;53.394;10.414;2023-12-29T01:25:08;8.50;;;1.90;;
39518;SDS011;25200;53.394;10.414;2023-12-29T01:27:34;8.15;;;2.25;;
39518;SDS011;25200;53.394;10.414;2023-12-29T01:30:00;7.40;;;2.10;;
39518;SDS011;25200;53.394;10.414;2023-12-29T01:32:26;10.55;;;2.15;;
39518;SDS011;25200;53.394;10.414;2023-12-29T01:34:52;8.95;;;2.00;;
39518;SDS011;25200;53.394;10.414;2023-12-29T01:37:17;9.18;;;2.20;;
39518;SDS011;25200;53.394;10.414;2023-12-29T01:39:43;6.90;;;1.98;;
39518;SDS011;25200;53.394;10.414;2023-12-29T01:42:09;9.95;;;1.80;;
39518;SDS011;25200;53.394;10.414;2023-12-29T01:44:36;7.00;;;1.70;;
39518;SDS011;25200;53.394;10.414;2023-12-29T01:47:01;6.93;;;1.65;;
39518;SDS011;25200;53.394;10.414;2023-12-29T01:49:31;7.70;;;2.05;;
39518;SDS011;25200;53.394;10.414;2023-12-29T01:51:58;7.68;;;2.08;;
39518;SDS011;25200;53.394;10.414;2023-12-29T01:54:27;5.88;;;1.58;;
39518;SDS011;25200;53.394;10.414;2023-12-29T01:56:58;6.95;;;1.75;;
39518;SDS011;25200;53.394;10.414;2023-12-29T01:59:25;7.15;;;1.70;;
39518;SDS011;25200;53.394;10.414;2023-12-29T02:01:55;5.97;;;1.73;;
39518;SDS011;25200;53.394;10.414;2023-12-29T02:04:22;9.05;;;2.17;;
39518;SDS011;25200;53.394;10.414;2023-12-29T02:06:49;5.65;;;1.73;;
39518;SDS011;25200;53.394;10.414;2023-12-29T02:09:16;8.50;;;2.00;;
39518;SDS011;25200;53.394;10.414;2023-12-29T02:11:43;7.13;;;1.88;;
39518;SDS011;25200;53.394;10.414;2023-12-29T02:14:10;8.50;;;1.60;;
39518;SDS011;25200;53.394;10.414;2023-12-29T02:22:05;7.90;;;1.88;;
39518;SDS011;25200;53.394;10.414;2023-12-29T02:24:33;6.63;;;1.77;;
39518;SDS011;25200;53.394;10.414;2023-12-29T02:29:33;6.22;;;1.58;;
39518;SDS011;25200;53.394;10.414;2023-12-29T02:31:59;6.57;;;1.95;;
39518;SDS011;25200;53.394;10.414;2023-12-29T02:34:29;8.82;;;2.10;;
39518;SDS011;25200;53.394;10.414;2023-12-29T02:36:57;5.00;;;1.70;;
39518;SDS011;25200;53.394;10.414;2023-12-29T02:39:23;6.05;;;1.50;;
39518;SDS011;25200;53.394;10.414;2023-12-29T02:41:49;8.00;;;1.80;;
39518;SDS011;25200;53.394;10.414;2023-12-29T02:44:15;6.15;;;1.70;;
39518;SDS011;25200;53.394;10.414;2023-12-29T02:46:41;5.53;;;1.58;;
39518;SDS011;25200;53.394;10.414;2023-12-29T02:49:06;5.88;;;1.52;;
39518;SDS011;25200;53.394;10.414;2023-12-29T02:51:36;7.78;;;1.85;;
39518;SDS011;25200;53.394;10.414;2023-12-29T02:54:02;6.85;;;1.70;;
39518;SDS011;25200;53.394;10.414;2023-12-29T02:56:27;7.38;;;1.88;;
39518;SDS011;25200;53.394;10.414;2023-12-29T02:58:53;6.00;;;1.70;;
39518;SDS011;25200;53.394;10.414;2023-12-29T03:01:19;6.00;;;1.90;;
39518;SDS011;25200;53.394;10.414;2023-12-29T03:03:44;6.60;;;2.00;;
39518;SDS011;25200;53.394;10.414;2023-12-29T03:06:10;3.17;;;1.00;;
39518;SDS011;25200;53.394;10.414;2023-12-29T03:08:36;8.85;;;1.73;;
39518;SDS011;25200;53.394;10.414;2023-12-29T03:11:01;6.25;;;1.30;;
39518;SDS011;25200;53.394;10.414;2023-12-29T03:13:27;4.10;;;1.48;;
39518;SDS011;25200;53.394;10.414;2023-12-29T03:15:53;8.90;;;1.60;;
39518;SDS011;25200;53.394;10.414;2023-12-29T03:18:18;8.18;;;1.65;;
39518;SDS011;25200;53.394;10.414;2023-12-29T03:20:44;6.00;;;1.55;;
39518;SDS011;25200;53.394;10.414;2023-12-29T03:23:09;4.03;;;0.93;;
39518;SDS011;25200;53.394;10.414;2023-12-29T03:25:35;7.72;;;1.60;;
39518;SDS011;25200;53.394;10.414;2023-12-29T03:28:01;4.93;;;1.38;;
39518;SDS011;25200;53.394;10.414;2023-12-29T03:30:26;4.60;;;1.58;;
39518;SDS011;25200;53.394;10.414;2023-12-29T03:32:52;9.23;;;1.80;;
39518;SDS011;25200;53.394;10.414;2023-12-29T03:35:18;6.20;;;1.80;;
39518;SDS011;25200;53.394;10.414;2023-12-29T03:37:43;7.25;;;2.08;;
39518;SDS011;25200;53.394;10.414;2023-12-29T03:40:09;6.63;;;1.80;;
39518;SDS011;25200;53.394;10.414;2023-12-29T03:42:35;7.72;;;1.80;;
39518;SDS011;25200;53.394;10.414;2023-12-29T03:45:00;8.35;;;2.30;;
39518;SDS011;25200;53.394;10.414;2023-12-29T03:47:26;7.18;;;2.10;;
39518;SDS011;25200;53.394;10.414;2023-12-29T03:49:53;9.23;;;2.05;;
39518;SDS011;25200;53.394;10.414;2023-12-29T03:52:18;7.78;;;1.90;;
39518;SDS011;25200;53.394;10.414;2023-12-29T03:54:44;8.00;;;1.88;;
39518;SDS011;25200;53.394;10.414;2023-12-29T03:57:09;9.25;;;2.17;;
39518;SDS011;25200;53.394;10.414;2023-12-29T03:59:38;7.55;;;2.10;;
39518;SDS011;25200;53.394;10.414;2023-12-29T04:02:03;6.78;;;1.45;;
39518;SDS011;25200;53.394;10.414;2023-12-29T04:04:29;3.50;;;1.15;;
39518;SDS011;25200;53.394;10.414;2023-12-29T04:06:55;6.95;;;1.58;;
39518;SDS011;25200;53.394;10.414;2023-12-29T04:09:20;5.18;;;1.83;;
39518;SDS011;25200;53.394;10.414;2023-12-29T04:11:46;8.65;;;2.10;;
39518;SDS011;25200;53.394;10.414;2023-12-29T04:14:11;5.28;;;1.73;;
39518;SDS011;25200;53.394;10.414;2023-12-29T04:16:38;6.45;;;1.95;;
39518;SDS011;25200;53.394;10.414;2023-12-29T04:19:04;11.35;;;2.58;;
39518;SDS011;25200;53.394;10.414;2023-12-29T04:21:30;7.25;;;1.90;;
39518;SDS011;25200;53.394;10.414;2023-12-29T04:23:55;6.68;;;1.70;;
39518;SDS011;25200;53.394;10.414;2023-12-29T04:26:21;5.97;;;1.75;;
39518;SDS011;25200;53.394;10.414;2023-12-29T04:28:47;6.38;;;1.52;;
39518;SDS011;25200;53.394;10.414;2023-12-29T04:31:12;5.90;;;1.60;;
39518;SDS011;25200;53.394;10.414;2023-12-29T04:33:38;4.95;;;1.58;;
39518;SDS011;25200;53.394;10.414;2023-12-29T04:36:03;3.58;;;1.10;;
39518;SDS011;25200;53.394;10.414;2023-12-29T04:38:29;6.15;;;1.23;;
39518;SDS011;25200;53.394;10.414;2023-12-29T04:40:55;3.67;;;1.00;;
39518;SDS011;25200;53.394;10.414;2023-12-29T04:43:21;7.70;;;1.33;;
39518;SDS011;25200;53.394;10.414;2023-12-29T04:45:46;4.75;;;1.45;;
39518;SDS011;25200;53.394;10.414;2023-12-29T04:48:12;8.65;;;1.80;;
39518;SDS011;25200;53.394;10.414;2023-12-29T04:50:37;4.75;;;1.35;;
39518;SDS011;25200;53.394;10.414;2023-12-29T04:53:03;3.13;;;1.02;;
39518;SDS011;25200;53.394;10.414;2023-12-29T04:55:29;5.95;;;1.17;;
39518;SDS011;25200;53.394;10.414;2023-12-29T04:57:54;4.28;;;1.17;;
39518;SDS011;25200;53.394;10.414;2023-12-29T05:00:20;2.50;;;0.70;;
39518;SDS011;25200;53.394;10.414;2023-12-29T05:02:46;5.50;;;1.58;;
39518;SDS011;25200;53.394;10.414;2023-12-29T05:05:11;5.60;;;1.58;;
39518;SDS011;25200;53.394;10.414;2023-12-29T05:07:37;4.93;;;1.67;;
39518;SDS011;25200;53.394;10.414;2023-12-29T05:10:03;4.57;;;1.50;;
39518;SDS011;25200;53.394;10.414;2023-12-29T05:12:28;6.03;;;2.03;;
39518;SDS011;25200;53.394;10.414;2023-12-29T05:14:55;6.78;;;1.60;;
39518;SDS011;25200;53.394;10.414;2023-12-29T05:17:20;7.55;;;1.73;;
39518;SDS011;25200;53.394;10.414;2023-12-29T05:19:46;3.13;;;1.13;;
39518;SDS011;25200;53.394;10.414;2023-12-29T05:22:12;4.93;;;1.67;;
39518;SDS011;25200;53.394;10.414;2023-12-29T05:24:40;3.45;;;0.70;;
39518;SDS011;25200;53.394;10.414;2023-12-29T05:27:07;2.83;;;0.80;;
39518;SDS011;25200;53.394;10.414;2023-12-29T05:29:32;1.80;;;0.50;;
39518;SDS011;25200;53.394;10.414;2023-12-29T05:31:58;3.00;;;0.60;;
39518;SDS011;25200;53.394;10.414;2023-12-29T05:34:24;2.53;;;0.60;;
39518;SDS011;25200;53.394;10.414;2023-12-29T05:36:49;3.78;;;0.75;;
39518;SDS011;25200;53.394;10.414;2023-12-29T05:39:15;2.55;;;0.88;;
39518;SDS011;25200;53.394;10.414;2023-12-29T05:41:40;2.67;;;0.82;;
39518;SDS011;25200;53.394;10.414;2023-12-29T05:44:06;3.75;;;0.63;;
39518;SDS011;25200;53.394;10.414;2023-12-29T05:46:32;5.30;;;0.65;;
39518;SDS011;25200;53.394;10.414;2023-12-29T05:48:57;2.28;;;0.65;;
39518;SDS011;25200;53.394;10.414;2023-12-29T05:51:24;1.77;;;0.60;;
39518;SDS011;25200;53.394;10.414;2023-12-29T05:53:49;3.58;;;0.90;;
39518;SDS011;25200;53.394;10.414;2023-12-29T05:56:15;2.90;;;0.65;;
39518;SDS011;25200;53.394;10.414;2023-12-29T05:58:41;3.63;;;0.80;;
39518;SDS011;25200;53.394;10.414;2023-12-29T06:01:07;2.30;;;0.60;;
39518;SDS011;25200;53.394;10.414;2023-12-29T06:03:34;3.05;;;0.73;;
39518;SDS011;25200;53.394;10.414;2023-12-29T06:05:59;1.73;;;0.68;;
39518;SDS011;25200;53.394;10.414;2023-12-29T06:08:25;4.35;;;0.88;;
39518;SDS011;25200;53.394;10.414;2023-12-29T06:10:51;2.50;;;0.77;;
39518;SDS011;25200;53.394;10.414;2023-12-29T06:13:17;2.30;;;0.77;;
39518;SDS011;25200;53.394;10.414;2023-12-29T06:15:42;2.60;;;0.68;;
39518;SDS011;25200;53.394;10.414;2023-12-29T06:18:08;4.57;;;0.77;;
39518;SDS011;25200;53.394;10.414;2023-12-29T06:20:34;4.95;;;0.75;;
39518;SDS011;25200;53.394;10.414;2023-12-29T06:22:59;3.67;;;1.13;;
39518;SDS011;25200;53.394;10.414;2023-12-29T06:25:25;4.82;;;0.95;;
39518;SDS011;25200;53.394;10.414;2023-12-29T06:27:51;2.95;;;0.63;;
39518;SDS011;25200;53.394;10.414;2023-12-29T06:30:19;2.90;;;1.17;;
39518;SDS011;25200;53.394;10.414;2023-12-29T06:32:45;4.50;;;1.20;;
39518;SDS011;25200;53.394;10.414;2023-12-29T06:35:11;4.63;;;1.17;;
39518;SDS011;25200;53.394;10.414;2023-12-29T06:37:39;4.72;;;1.30;;
39518;SDS011;25200;53.394;10.414;2023-12-29T06:40:06;4.57;;;1.20;;
39518;SDS011;25200;53.394;10.414;2023-12-29T06:42:32;3.88;;;1.13;;
39518;SDS011;25200;53.394;10.414;2023-12-29T06:44:58;3.20;;;0.95;;
39518;SDS011;25200;53.394;10.414;2023-12-29T06:47:24;5.60;;;1.40;;
39518;SDS011;25200;53.394;10.414;2023-12-29T06:49:50;3.35;;;1.20;;
39518;SDS011;25200;53.394;10.414;2023-12-29T06:52:16;6.07;;;1.48;;
39518;SDS011;25200;53.394;10.414;2023-12-29T06:54:41;3.58;;;1.20;;
39518;SDS011;25200;53.394;10.414;2023-12-29T06:57:07;9.18;;;1.58;;
39518;SDS011;25200;53.394;10.414;2023-12-29T06:59:33;5.75;;;1.45;;
39518;SDS011;25200;53.394;10.414;2023-12-29T07:01:58;5.32;;;1.30;;
39518;SDS011;25200;53.394;10.414;2023-12-29T07:04:24;4.05;;;1.23;;
39518;SDS011;25200;53.394;10.414;2023-12-29T07:06:50;8.15;;;2.08;;
39518;SDS011;25200;53.394;10.414;2023-12-29T07:09:15;5.35;;;1.85;;
39518;SDS011;25200;53.394;10.414;2023-12-29T07:11:41;7.18;;;1.50;;
39518;SDS011;25200;53.394;10.414;2023-12-29T07:14:11;7.72;;;1.67;;
39518;SDS011;25200;53.394;10.414;2023-12-29T07:16:37;7.15;;;1.45;;
39518;SDS011;25200;53.394;10.414;2023-12-29T07:19:03;5.10;;;1.50;;
39518;SDS011;25200;53.394;10.414;2023-12-29T07:21:28;12.20;;;1.90;;
39518;SDS011;25200;53.394;10.414;2023-12-29T07:23:54;8.20;;;1.85;;
39518;SDS011;25200;53.394;10.414;2023-12-29T07:26:20;8.23;;;2.28;;
39518;SDS011;25200;53.394;10.414;2023-12-29T07:28:45;11.05;;;2.00;;
39518;SDS011;25200;53.394;10.414;2023-12-29T07:31:11;7.90;;;1.88;;
39518;SDS011;25200;53.394;10.414;2023-12-29T07:33:37;12.30;;;2.15;;
39518;SDS011;25200;53.394;10.414;2023-12-29T07:36:03;7.93;;;2.03;;
39518;SDS011;25200;53.394;10.414;2023-12-29T07:38:29;7.47;;;1.77;;
39518;SDS011;25200;53.394;10.414;2023-12-29T07:40:54;11.02;;;2.40;;
39518;SDS011;25200;53.394;10.414;2023-12-29T07:43:20;10.40;;;2.10;;
39518;SDS011;25200;53.394;10.414;2023-12-29T07:45:45;12.00;;;2.35;;
39518;SDS011;25200;53.394;10.414;2023-12-29T07:48:11;13.80;;;2.72;;
39518;SDS011;25200;53.394;10.414;2023-12-29T07:50:37;10.38;;;1.98;;
39518;SDS011;25200;53.394;10.414;2023-12-29T07:53:03;16.77;;;2.30;;
39518;SDS011;25200;53.394;10.414;2023-12-29T07:55:30;12.63;;;2.10;;
39518;SDS011;25200;53.394;10.414;2023-12-29T07:57:56;14.38;;;2.45;;
39518;SDS011;25200;53.394;10.414;2023-12-29T08:00:22;14.13;;;2.25;;
39518;SDS011;25200;53.394;10.414;2023-12-29T08:02:48;13.80;;;2.35;;
39518;SDS011;25200;53.394;10.414;2023-12-29T08:05:14;17.40;;;2.80;;
39518;SDS011;25200;53.394;10.414;2023-12-29T08:07:41;10.05;;;1.92;;
39518;SDS011;25200;53.394;10.414;2023-12-29T08:10:08;11.73;;;2.38;;
39518;SDS011;25200;53.394;10.414;2023-12-29T08:12:34;12.70;;;2.85;;
39518;SDS011;25200;53.394;10.414;2023-12-29T08:15:00;9.50;;;2.33;;
39518;SDS011;25200;53.394;10.414;2023-12-29T08:17:26;12.65;;;2.10;;
39518;SDS011;25200;53.394;10.414;2023-12-29T08:19:53;11.80;;;2.08;;
39518;SDS011;25200;53.394;10.414;2023-12-29T08:22:19;10.45;;;2.15;;
39518;SDS011;25200;53.394;10.414;2023-12-29T08:24:45;12.98;;;2.40;;
39518;SDS011;25200;53.394;10.414;2023-12-29T08:27:13;13.25;;;2.55;;
39518;SDS011;25200;53.394;10.414;2023-12-29T08:29:39;7.00;;;2.28;;
39518;SDS011;25200;53.394;10.414;2023-12-29T08:32:05;7.90;;;2.10;;
39518;SDS011;25200;53.394;10.414;2023-12-29T08:34:32;10.10;;;2.20;;
39518;SDS011;25200;53.394;10.414;2023-12-29T08:36:59;8.43;;;1.80;;
39518;SDS011;25200;53.394;10.414;2023-12-29T08:39:24;11.75;;;2.10;;
39518;SDS011;25200;53.394;10.414;2023-12-29T08:41:50;12.20;;;2.20;;
39518;SDS011;25200;53.394;10.414;2023-12-29T08:44:16;11.60;;;2.42;;
39518;SDS011;25200;53.394;10.414;2023-12-29T08:46:41;11.68;;;2.25;;
39518;SDS011;25200;53.394;10.414;2023-12-29T08:49:07;14.82;;;2.50;;
39518;SDS011;25200;53.394;10.414;2023-12-29T08:51:33;11.27;;;2.10;;
39518;SDS011;25200;53.394;10.414;2023-12-29T08:53:58;10.60;;;2.20;;
39518;SDS011;25200;53.394;10.414;2023-12-29T08:56:24;16.10;;;2.15;;
39518;SDS011;25200;53.394;10.414;2023-12-29T08:58:50;16.27;;;2.22;;
39518;SDS011;25200;53.394;10.414;2023-12-29T09:01:16;10.30;;;1.88;;
39518;SDS011;25200;53.394;10.414;2023-12-29T09:03:41;14.70;;;2.40;;
39518;SDS011;25200;53.394;10.414;2023-12-29T09:06:07;14.32;;;2.40;;
39518;SDS011;25200;53.394;10.414;2023-12-29T09:08:33;15.27;;;2.78;;
39518;SDS011;25200;53.394;10.414;2023-12-29T09:11:00;17.33;;;2.70;;
39518;SDS011;25200;53.394;10.414;2023-12-29T09:13:25;13.65;;;2.38;;
39518;SDS011;25200;53.394;10.414;2023-12-29T09:15:52;12.75;;;2.00;;
39518;SDS011;25200;53.394;10.414;2023-12-29T09:18:19;12.93;;;2.17;;
39518;SDS011;25200;53.394;10.414;2023-12-29T09:20:44;13.30;;;2.28;;
39518;SDS011;25200;53.394;10.414;2023-12-29T09:23:10;11.07;;;2.13;;
39518;SDS011;25200;53.394;10.414;2023-12-29T09:25:35;9.10;;;1.88;;
39518;SDS011;25200;53.394;10.414;2023-12-29T09:28:02;12.25;;;2.20;;
39518;SDS011;25200;53.394;10.414;2023-12-29T09:30:28;10.02;;;2.13;;
39518;SDS011;25200;53.394;10.414;2023-12-29T09:32:53;15.88;;;3.28;;
39518;SDS011;25200;53.394;10.414;2023-12-29T09:35:19;10.75;;;2.40;;
39518;SDS011;25200;53.394;10.414;2023-12-29T09:37:47;9.75;;;1.92;;
39518;SDS011;25200;53.394;10.414;2023-12-29T09:40:13;14.20;;;2.58;;
39518;SDS011;25200;53.394;10.414;2023-12-29T09:42:39;11.77;;;2.47;;
39518;SDS011;25200;53.394;10.414;2023-12-29T09:45:10;11.05;;;2.22;;
39518;SDS011;25200;53.394;10.414;2023-12-29T09:47:38;10.52;;;2.53;;
39518;SDS011;25200;53.394;10.414;2023-12-29T09:50:05;17.02;;;4.18;;
39518;SDS011;25200;53.394;10.414;2023-12-29T09:52:41;16.40;;;2.53;;
39518;SDS011;25200;53.394;10.414;2023-12-29T09:55:08;7.13;;;1.98;;
39518;SDS011;25200;53.394;10.414;2023-12-29T09:57:36;8.85;;;2.53;;
39518;SDS011;25200;53.394;10.414;2023-12-29T10:00:03;12.02;;;2.25;;
39518;SDS011;25200;53.394;10.414;2023-12-29T10:02:29;6.78;;;2.38;;
39518;SDS011;25200;53.394;10.414;2023-12-29T10:04:56;9.55;;;2.33;;
39518;SDS011;25200;53.394;10.414;2023-12-29T10:07:25;12.75;;;2.33;;
39518;SDS011;25200;53.394;10.414;2023-12-29T10:09:55;10.93;;;2.10;;
39518;SDS011;25200;53.394;10.414;2023-12-29T10:12:22;8.75;;;2.10;;
39518;SDS011;25200;53.394;10.414;2023-12-29T10:14:54;10.07;;;2.28;;
39518;SDS011;25200;53.394;10.414;2023-12-29T10:17:46;7.72;;;2.03;;
39518;SDS011;25200;53.394;10.414;2023-12-29T10:20:45;7.68;;;2.20;;
39518;SDS011;25200;53.394;10.414;2023-12-29T10:26:03;6.95;;;1.85;;
39518;SDS011;25200;53.394;10.414;2023-12-29T10:28:30;6.45;;;1.38;;
39518;SDS011;25200;53.394;10.414;2023-12-29T10:30:56;6.82;;;1.58;;
39518;SDS011;25200;53.394;10.414;2023-12-29T10:33:23;9.23;;;1.75;;
39518;SDS011;25200;53.394;10.414;2023-12-29T10:35:58;5.82;;;1.38;;
39518;SDS011;25200;53.394;10.414;2023-12-29T10:38:28;8.55;;;1.70;;
39518;SDS011;25200;53.394;10.414;2023-12-29T10:40:54;9.25;;;1.73;;
39518;SDS011;25200;53.394;10.414;2023-12-29T10:43:34;7.25;;;1.83;;
39518;SDS011;25200;53.394;10.414;2023-12-29T10:46:10;6.70;;;1.60;;
39518;SDS011;25200;53.394;10.414;2023-12-29T10:48:36;5.65;;;1.02;;
39518;SDS011;25200;53.394;10.414;2023-12-29T10:51:03;8.02;;;1.80;;
39518;SDS011;25200;53.394;10.414;2023-12-29T10:53:32;8.13;;;1.65;;
39518;SDS011;25200;53.394;10.414;2023-12-29T10:55:59;7.95;;;1.60;;
39518;SDS011;25200;53.394;10.414;2023-12-29T10:58:28;4.93;;;1.40;;
39518;SDS011;25200;53.394;10.414;2023-12-29T11:00:55;6.85;;;1.60;;
39518;SDS011;25200;53.394;10.414;2023-12-29T11:03:21;8.48;;;1.65;;
39518;SDS011;25200;53.394;10.414;2023-12-29T11:05:47;8.32;;;1.60;;
39518;SDS011;25200;53.394;10.414;2023-12-29T11:08:17;4.97;;;1.02;;
39518;SDS011;25200;53.394;10.414;2023-12-29T11:10:43;6.45;;;1.40;;
39518;SDS011;25200;53.394;10.414;2023-12-29T11:13:10;4.38;;;1.17;;
39518;SDS011;25200;53.394;10.414;2023-12-29T11:15:40;6.28;;;1.40;;
39518;SDS011;25200;53.394;10.414;2023-12-29T11:18:09;3.55;;;0.98;;
39518;SDS011;25200;53.394;10.414;2023-12-29T11:20:41;6.20;;;1.40;;
39518;SDS011;25200;53.394;10.414;2023-12-29T11:23:08;6.90;;;1.20;;
39518;SDS011;25200;53.394;10.414;2023-12-29T11:25:36;6.10;;;1.30;;
39518;SDS011;25200;53.394;10.414;2023-12-29T11:28:03;8.07;;;1.38;;
39518;SDS011;25200;53.394;10.414;2023-12-29T11:30:33;7.35;;;1.80;;
39518;SDS011;25200;53.394;10.414;2023-12-29T11:33:01;7.47;;;1.85;;
39518;SDS011;25200;53.394;10.414;2023-12-29T11:41:32;8.27;;;1.73;;
39518;SDS011;25200;53.394;10.414;2023-12-29T11:44:03;7.78;;;1.73;;
39518;SDS011;25200;53.394;10.414;2023-12-29T11:46:32;4.57;;;1.40;;
39518;SDS011;25200;53.394;10.414;2023-12-29T11:49:02;9.50;;;1.35;;
39518;SDS011;25200;53.394;10.414;2023-12-29T11:54:04;8.85;;;1.45;;
39518;SDS011;25200;53.394;10.414;2023-12-29T11:56:34;9.07;;;1.38;;
39518;SDS011;25200;53.394;10.414;2023-12-29T12:01:41;5.85;;;1.40;;
39518;SDS011;25200;53.394;10.414;2023-12-29T12:07:05;6.43;;;1.42;;
39518;SDS011;25200;53.394;10.414;2023-12-29T12:09:32;6.43;;;1.25;;
39518;SDS011;25200;53.394;10.414;2023-12-29T12:12:00;6.45;;;1.13;;
39518;SDS011;25200;53.394;10.414;2023-12-29T12:14:44;6.90;;;1.60;;
39518;SDS011;25200;53.394;10.414;2023-12-29T12:17:10;5.45;;;1.40;;
39518;SDS011;25200;53.394;10.414;2023-12-29T12:19:36;4.97;;;1.27;;
39518;SDS011;25200;53.394;10.414;2023-12-29T12:22:02;10.02;;;1.50;;
39518;SDS011;25200;53.394;10.414;2023-12-29T12:24:28;8.75;;;2.03;;
39518;SDS011;25200;53.394;10.414;2023-12-29T12:26:54;7.55;;;2.17;;
39518;SDS011;25200;53.394;10.414;2023-12-29T12:29:20;5.07;;;1.30;;
39518;SDS011;25200;53.394;10.414;2023-12-29T12:31:55;8.88;;;1.58;;
39518;SDS011;25200;53.394;10.414;2023-12-29T12:34:22;6.43;;;1.27;;
39518;SDS011;25200;53.394;10.414;2023-12-29T12:36:48;10.35;;;1.55;;
39518;SDS011;25200;53.394;10.414;2023-12-29T12:39:15;7.00;;;1.42;;
39518;SDS011;25200;53.394;10.414;2023-12-29T12:41:41;8.40;;;1.55;;
39518;SDS011;25200;53.394;10.414;2023-12-29T12:44:10;4.78;;;1.25;;
39518;SDS011;25200;53.394;10.414;2023-12-29T12:46:50;3.95;;;1.15;;
39518;SDS011;25200;53.394;10.414;2023-12-29T12:49:18;4.78;;;0.98;;
39518;SDS011;25200;53.394;10.414;2023-12-29T12:51:44;5.35;;;1.15;;
39518;SDS011;25200;53.394;10.414;2023-12-29T12:54:10;3.90;;;1.30;;
39518;SDS011;25200;53.394;10.414;2023-12-29T12:56:38;5.63;;;1.10;;
39518;SDS011;25200;53.394;10.414;2023-12-29T12:59:07;5.35;;;1.00;;
39518;SDS011;25200;53.394;10.414;2023-12-29T13:01:36;3.33;;;0.75;;
39518;SDS011;25200;53.394;10.414;2023-12-29T13:04:02;7.07;;;1.30;;
39518;SDS011;25200;53.394;10.414;2023-12-29T13:06:30;2.38;;;1.00;;
39518;SDS011;25200;53.394;10.414;2023-12-29T13:08:58;2.63;;;0.98;;
39518;SDS011;25200;53.394;10.414;2023-12-29T13:11:24;3.42;;;1.05;;
39518;SDS011;25200;53.394;10.414;2023-12-29T13:13:52;4.63;;;1.02;;
39518;SDS011;25200;53.394;10.414;2023-12-29T13:19:17;5.38;;;1.45;;
39518;SDS011;25200;53.394;10.414;2023-12-29T13:21:47;6.57;;;1.38;;
39518;SDS011;25200;53.394;10.414;2023-12-29T13:24:15;3.63;;;1.20;;
39518;SDS011;25200;53.394;10.414;2023-12-29T13:26:41;4.55;;;1.13;;
39518;SDS011;25200;53.394;10.414;2023-12-29T13:29:09;8.00;;;1.33;;
39518;SDS011;25200;53.394;10.414;2023-12-29T13:31:35;6.85;;;1.40;;
39518;SDS011;25200;53.394;10.414;2023-12-29T13:34:04;5.30;;;1.23;;
39518;SDS011;25200;53.394;10.414;2023-12-29T13:37:21;5.05;;;1.10;;
39518;SDS011;25200;53.394;10.414;2023-12-29T13:39:35;8.40;;;1.17;;
39518;SDS011;25200;53.394;10.414;2023-12-29T13:42:14;5.90;;;1.20;;
39518;SDS011;25200;53.394;10.414;2023-12-29T13:44:44;7.68;;;1.30;;
39518;SDS011;25200;53.394;10.414;2023-12-29T13:47:11;5.45;;;1.08;;
39518;SDS011;25200;53.394;10.414;2023-12-29T13:49:38;5.70;;;0.88;;
39518;SDS011;25200;53.394;10.414;2023-12-29T13:52:04;3.05;;;0.98;;
39518;SDS011;25200;53.394;10.414;2023-12-29T13:54:30;2.78;;;0.90;;
39518;SDS011;25200;53.394;10.414;2023-12-29T13:57:06;6.78;;;1.15;;
39518;SDS011;25200;53.394;10.414;2023-12-29T13:59:32;6.38;;;1.10;;
39518;SDS011;25200;53.394;10.414;2023-12-29T14:01:58;5.20;;;1.10;;
39518;SDS011;25200;53.394;10.414;2023-12-29T14:04:27;5.45;;;1.38;;
39518;SDS011;25200;53.394;10.414;2023-12-29T14:07:02;8.10;;;1.30;;
39518;SDS011;25200;53.394;10.414;2023-12-29T14:09:28;5.82;;;1.05;;
39518;SDS011;25200;53.394;10.414;2023-12-29T14:11:53;4.65;;;1.20;;
39518;SDS011;25200;53.394;10.414;2023-12-29T14:14:23;6.80;;;1.50;;
39518;SDS011;25200;53.394;10.414;2023-12-29T14:16:52;7.00;;;1.30;;
39518;SDS011;25200;53.394;10.414;2023-12-29T14:19:19;6.88;;;1.67;;
39518;SDS011;25200;53.394;10.414;2023-12-29T14:21:49;7.03;;;1.27;;
39518;SDS011;25200;53.394;10.414;2023-12-29T14:24:17;8.02;;;1.77;;
39518;SDS011;25200;53.394;10.414;2023-12-29T14:29:18;5.60;;;1.17;;
39518;SDS011;25200;53.394;10.414;2023-12-29T14:31:45;7.35;;;1.70;;
39518;SDS011;25200;53.394;10.414;2023-12-29T14:34:11;9.30;;;1.63;;
39518;SDS011;25200;53.394;10.414;2023-12-29T14:36:38;9.85;;;2.00;;
39518;SDS011;25200;53.394;10.414;2023-12-29T14:39:05;7.32;;;1.67;;
39518;SDS011;25200;53.394;10.414;2023-12-29T14:41:32;9.30;;;1.77;;
39518;SDS011;25200;53.394;10.414;2023-12-29T14:43:58;14.48;;;2.20;;
39518;SDS011;25200;53.394;10.414;2023-12-29T14:46:24;7.60;;;1.60;;
39518;SDS011;25200;53.394;10.414;2023-12-29T14:48:50;9.02;;;1.70;;
39518;SDS011;25200;53.394;10.414;2023-12-29T14:51:17;6.60;;;1.67;;
39518;SDS011;25200;53.394;10.414;2023-12-29T14:53:49;11.65;;;1.98;;
39518;SDS011;25200;53.394;10.414;2023-12-29T14:56:15;9.48;;;2.17;;
39518;SDS011;25200;53.394;10.414;2023-12-29T14:58:41;9.98;;;2.10;;